Time,TemperatureF,DewpointF,PressureIn,WindDirection,WindDirectionDegrees,WindSpeedMPH,WindSpeedGustMPH,Humidity,HourlyPrecipIn,Conditions,Clouds,dailyrainin,SolarRadiationWatts/m^2,SoftwareType,DateUTC
2013-02-06 00:11:00,23.3,21.0,29.93,ESE,121,0.0,1.0,92,0.00,,,0.00,0,weatherlink.com 1.10,2013-02-06 05:11:00,
2013-02-06 00:27:00,23.3,21.0,29.93,ESE,121,0.0,0.0,92,0.00,,,0.00,0,weatherlink.com 1.10,2013-02-06 05:27:00,
2013-02-06 00:43:00,23.3,21.0,29.93,ESE,121,0.0,0.0,92,0.00,,,0.00,0,weatherlink.com 1.10,2013-02-06 05:43:00,
2013-02-06 00:58:00,23.4,22.0,29.93,ESE,121,0.0,0.0,92,0.00,,,0.00,0,weatherlink.com 1.10,2013-02-06 05:58:00,
2013-02-06 01:15:00,23.5,22.0,29.93,ESE,121,0.0,0.0,92,0.00,,,0.00,0,weatherlink.com 1.10,2013-02-06 06:15:00,
2013-02-06 01:31:00,23.6,22.0,29.93,ESE,121,0.0,0.0,92,0.00,,,0.00,0,weatherlink.com 1.10,2013-02-06 06:31:00,
2013-02-06 01:47:00,23.7,22.0,29.92,ESE,121,0.0,0.0,92,0.00,,,0.00,0,weatherlink.com 1.10,2013-02-06 06:47:00,
2013-02-06 02:03:00,23.7,22.0,29.92,ESE,121,0.0,0.0,92,0.00,,,0.00,0,weatherlink.com 1.10,2013-02-06 07:03:00,
2013-02-06 02:19:00,23.8,22.0,29.92,ESE,121,0.0,1.0,92,0.00,,,0.00,0,weatherlink.com 1.10,2013-02-06 07:19:00,
2013-02-06 02:35:00,23.9,22.0,29.92,SE,125,0.0,2.0,93,0.00,,,0.00,0,weatherlink.com 1.10,2013-02-06 07:35:00,
2013-02-06 02:50:00,23.9,22.0,29.92,South,169,0.0,2.0,93,0.00,,,0.00,0,weatherlink.com 1.10,2013-02-06 07:50:00,
2013-02-06 03:06:00,23.8,22.0,29.91,South,171,0.0,2.0,93,0.00,,,0.00,0,weatherlink.com 1.10,2013-02-06 08:06:00,
2013-02-06 03:22:00,23.8,22.0,29.91,South,171,0.0,0.0,93,0.00,,,0.00,0,weatherlink.com 1.10,2013-02-06 08:22:00,
2013-02-06 03:39:00,23.8,22.0,29.92,South,171,0.0,0.0,93,0.00,,,0.00,0,weatherlink.com 1.10,2013-02-06 08:39:00,
2013-02-06 03:55:00,23.9,22.0,29.93,South,184,0.0,2.0,93,0.00,,,0.00,0,weatherlink.com 1.10,2013-02-06 08:55:00,
2013-02-06 04:12:00,23.9,23.0,29.92,South,184,1.0,2.0,94,0.00,,,0.00,0,weatherlink.com 1.10,2013-02-06 09:12:00,
2013-02-06 04:26:00,23.8,22.0,29.93,SSW,198,0.0,3.0,94,0.00,,,0.00,0,weatherlink.com 1.10,2013-02-06 09:26:00,
2013-02-06 04:42:00,23.8,22.0,29.94,SSW,198,0.0,2.0,94,0.00,,,0.00,0,weatherlink.com 1.10,2013-02-06 09:42:00,
2013-02-06 04:58:00,23.9,23.0,29.94,SSW,198,0.0,1.0,94,0.00,,,0.00,0,weatherlink.com 1.10,2013-02-06 09:58:00,
2013-02-06 05:16:00,23.8,22.0,29.95,SSW,198,0.0,1.0,94,0.00,,,0.00,0,weatherlink.com 1.10,2013-02-06 10:16:00,
2013-02-06 05:30:00,23.7,22.0,29.95,SSW,200,0.0,2.0,94,0.00,,,0.00,0,weatherlink.com 1.10,2013-02-06 10:30:00,
2013-02-06 05:46:00,23.8,22.0,29.96,SW,232,2.0,2.0,94,0.00,,,0.00,0,weatherlink.com 1.10,2013-02-06 10:46:00,
2013-02-06 06:18:00,24.3,23.0,29.98,NW,304,1.0,5.0,94,0.00,,,0.00,0,weatherlink.com 1.10,2013-02-06 11:18:00,
2013-02-06 06:35:00,24.6,23.0,29.98,NNW,342,0.0,4.0,94,0.00,,,0.00,0,weatherlink.com 1.10,2013-02-06 11:35:00,
2013-02-06 06:51:00,24.8,23.0,29.98,NNW,333,1.0,4.0,94,0.00,,,0.00,0,weatherlink.com 1.10,2013-02-06 11:51:00,
2013-02-06 07:06:00,24.8,23.0,29.99,West,259,0.0,3.0,94,0.00,,,0.00,0,weatherlink.com 1.10,2013-02-06 12:06:00,
2013-02-06 07:22:00,24.8,23.0,30.00,West,265,2.0,4.0,93,0.00,,,0.00,30,weatherlink.com 1.10,2013-02-06 12:22:00,
2013-02-06 07:38:00,24.9,23.0,30.01,NW,308,4.0,4.0,93,0.00,,,0.00,26,weatherlink.com 1.10,2013-02-06 12:38:00,
2013-02-06 07:55:00,24.7,23.0,30.01,NW,309,0.0,3.0,92,0.00,,,0.00,21,weatherlink.com 1.10,2013-02-06 12:55:00,
2013-02-06 08:11:00,24.6,22.0,30.02,NW,309,0.0,3.0,91,0.00,,,0.00,83,weatherlink.com 1.10,2013-02-06 13:11:00,
2013-02-06 08:42:00,25.4,23.0,30.03,WSW,248,1.0,3.0,91,0.00,,,0.00,283,weatherlink.com 1.10,2013-02-06 13:42:00,
2013-02-06 08:58:00,25.9,23.0,30.03,WSW,248,0.0,3.0,90,0.00,,,0.00,211,weatherlink.com 1.10,2013-02-06 13:58:00,
2013-02-06 09:14:00,26.8,24.0,30.03,West,273,4.0,6.0,89,0.00,,,0.00,276,weatherlink.com 1.10,2013-02-06 14:14:00,
2013-02-06 09:31:00,28.2,25.0,30.03,WSW,245,3.0,4.0,86,0.00,,,0.00,327,weatherlink.com 1.10,2013-02-06 14:31:00,
2013-02-06 09:47:00,29.2,24.0,30.03,NW,321,5.0,7.0,82,0.01,,,0.01,151,weatherlink.com 1.10,2013-02-06 14:47:00,
2013-02-06 10:03:00,29.6,24.0,30.04,WSW,246,5.0,9.0,80,0.01,,,0.01,431,weatherlink.com 1.10,2013-02-06 15:03:00,
2013-02-06 10:20:00,30.5,24.0,30.05,NW,318,7.0,12.0,77,0.02,,,0.02,308,weatherlink.com 1.10,2013-02-06 15:20:00,
2013-02-06 10:35:00,30.8,24.0,30.05,West,259,6.0,11.0,75,0.02,,,0.02,253,weatherlink.com 1.10,2013-02-06 15:35:00,
2013-02-06 10:51:00,30.7,24.0,30.05,West,262,4.0,11.0,75,0.01,,,0.02,141,weatherlink.com 1.10,2013-02-06 15:51:00,
2013-02-06 11:07:00,32.0,24.0,30.05,WSW,257,6.0,13.0,72,0.01,,,0.02,485,weatherlink.com 1.10,2013-02-06 16:07:00,
2013-02-06 11:23:00,32.5,24.0,30.05,WNW,303,4.0,14.0,71,0.00,,,0.02,547,weatherlink.com 1.10,2013-02-06 16:23:00,
2013-02-06 11:40:00,32.9,23.0,30.04,NNW,333,7.0,17.0,67,0.01,,,0.03,608,weatherlink.com 1.10,2013-02-06 16:40:00,
2013-02-06 11:56:00,33.5,22.0,30.04,NW,321,9.0,17.0,64,0.01,,,0.03,229,weatherlink.com 1.10,2013-02-06 16:56:00,
2013-02-06 12:12:00,32.8,22.0,30.04,West,266,8.0,17.0,65,0.01,,,0.03,193,weatherlink.com 1.10,2013-02-06 17:12:00,
2013-02-06 12:28:00,32.8,22.0,30.04,NW,323,3.0,14.0,64,0.01,,,0.03,255,weatherlink.com 1.10,2013-02-06 17:28:00,
2013-02-06 12:44:00,32.6,21.0,30.04,WNW,286,11.0,21.0,62,0.00,,,0.03,171,weatherlink.com 1.10,2013-02-06 17:44:00,
2013-02-06 13:00:00,32.5,21.0,30.05,NNW,329,19.0,21.0,64,0.00,,,0.03,167,weatherlink.com 1.10,2013-02-06 18:00:00,
2013-02-06 13:16:00,32.0,21.0,30.05,NW,317,12.0,18.0,64,0.00,,,0.03,135,weatherlink.com 1.10,2013-02-06 18:16:00,
2013-02-06 13:32:00,31.9,22.0,30.06,NNW,331,13.0,16.0,66,0.00,,,0.03,162,weatherlink.com 1.10,2013-02-06 18:32:00,
2013-02-06 13:48:00,31.9,21.0,30.06,NW,304,10.0,16.0,64,0.00,,,0.03,114,weatherlink.com 1.10,2013-02-06 18:48:00,
2013-02-06 14:04:00,32.1,21.0,30.06,NW,316,4.0,14.0,64,0.00,,,0.03,84,weatherlink.com 1.10,2013-02-06 19:04:00,
2013-02-06 14:21:00,32.4,20.0,30.06,NW,312,6.0,18.0,60,0.00,,,0.03,69,weatherlink.com 1.10,2013-02-06 19:21:00,
2013-02-06 14:36:00,33.2,19.0,30.07,WSW,253,10.0,16.0,57,0.00,,,0.03,83,weatherlink.com 1.10,2013-02-06 19:36:00,
2013-02-06 14:52:00,32.6,19.0,30.07,NW,324,9.0,15.0,57,0.00,,,0.03,97,weatherlink.com 1.10,2013-02-06 19:52:00,
2013-02-06 15:08:00,33.8,19.0,30.07,NW,317,8.0,18.0,54,0.00,,,0.03,105,weatherlink.com 1.10,2013-02-06 20:08:00,
2013-02-06 15:24:00,33.3,19.0,30.09,NW,313,9.0,14.0,57,0.00,,,0.03,51,weatherlink.com 1.10,2013-02-06 20:24:00,
2013-02-06 15:40:00,32.8,19.0,30.09,NW,321,10.0,18.0,56,0.00,,,0.03,53,weatherlink.com 1.10,2013-02-06 20:40:00,
2013-02-06 15:57:00,32.5,17.0,30.11,North,350,4.0,21.0,54,0.00,,,0.03,44,weatherlink.com 1.10,2013-02-06 20:57:00,
2013-02-06 16:13:00,31.9,17.0,30.11,NW,318,9.0,16.0,54,0.00,,,0.03,33,weatherlink.com 1.10,2013-02-06 21:13:00,
2013-02-06 16:28:00,31.5,16.0,30.12,NW,321,12.0,19.0,53,0.00,,,0.03,25,weatherlink.com 1.10,2013-02-06 21:28:00,
2013-02-06 16:44:00,31.1,14.0,30.13,North,355,4.0,17.0,50,0.00,,,0.03,18,weatherlink.com 1.10,2013-02-06 21:44:00,
2013-02-06 17:01:00,30.3,13.0,30.14,NW,314,5.0,15.0,49,0.00,,,0.03,11,weatherlink.com 1.10,2013-02-06 22:01:00,
2013-02-06 17:17:00,29.7,13.0,30.15,NNW,332,11.0,14.0,51,0.00,,,0.03,0,weatherlink.com 1.10,2013-02-06 22:17:00,
2013-02-06 17:33:00,29.2,13.0,30.16,NNW,328,7.0,20.0,51,0.00,,,0.03,0,weatherlink.com 1.10,2013-02-06 22:33:00,
2013-02-06 17:49:00,28.8,12.0,30.17,NNW,339,12.0,21.0,50,0.00,,,0.03,0,weatherlink.com 1.10,2013-02-06 22:49:00,
2013-02-06 18:05:00,28.2,12.0,30.18,NW,323,7.0,12.0,52,0.00,,,0.03,0,weatherlink.com 1.10,2013-02-06 23:05:00,
2013-02-06 18:21:00,27.9,11.0,30.19,West,280,11.0,17.0,50,0.00,,,0.03,0,weatherlink.com 1.10,2013-02-06 23:21:00,
2013-02-06 18:37:00,27.6,11.0,30.20,NW,307,6.0,21.0,49,0.00,,,0.03,0,weatherlink.com 1.10,2013-02-06 23:37:00,
2013-02-06 18:54:00,27.1,10.0,30.21,NW,316,12.0,20.0,48,0.00,,,0.03,0,weatherlink.com 1.10,2013-02-06 23:54:00,
2013-02-06 19:10:00,26.8,10.0,30.23,NW,316,12.0,13.0,49,0.00,,,0.03,0,weatherlink.com 1.10,2013-02-07 00:10:00,
2013-02-06 19:26:00,26.4,9.0,30.23,NW,318,5.0,15.0,49,0.00,,,0.03,0,weatherlink.com 1.10,2013-02-07 00:26:00,
2013-02-06 19:42:00,25.9,8.0,30.24,NW,315,4.0,18.0,46,0.00,,,0.03,0,weatherlink.com 1.10,2013-02-07 00:42:00,
2013-02-06 19:57:00,25.5,5.0,30.25,NNW,340,8.0,19.0,42,0.00,,,0.03,0,weatherlink.com 1.10,2013-02-07 00:57:00,
2013-02-06 20:14:00,25.1,4.0,30.25,WNW,302,9.0,18.0,41,0.00,,,0.03,0,weatherlink.com 1.10,2013-02-07 01:14:00,
2013-02-06 20:30:00,24.6,4.0,30.26,NNW,331,2.0,8.0,42,0.00,,,0.03,0,weatherlink.com 1.10,2013-02-07 01:30:00,
2013-02-06 20:46:00,24.2,4.0,30.28,NNE,19,3.0,13.0,41,0.00,,,0.03,0,weatherlink.com 1.10,2013-02-07 01:46:00,
2013-02-06 21:02:00,23.9,3.0,30.29,WNW,296,3.0,10.0,41,0.00,,,0.03,0,weatherlink.com 1.10,2013-02-07 02:02:00,
2013-02-06 21:18:00,23.5,3.0,30.30,NNW,327,8.0,11.0,41,0.00,,,0.03,0,weatherlink.com 1.10,2013-02-07 02:18:00,
2013-02-06 21:34:00,23.0,3.0,30.30,North,355,6.0,8.0,43,0.00,,,0.03,0,weatherlink.com 1.10,2013-02-07 02:34:00,
2013-02-06 21:49:00,22.7,2.0,30.30,WNW,290,9.0,11.0,41,0.00,,,0.03,0,weatherlink.com 1.10,2013-02-07 02:49:00,
2013-02-06 22:22:00,21.9,2.0,30.31,WNW,298,2.0,9.0,42,0.00,,,0.03,0,weatherlink.com 1.10,2013-02-07 03:22:00,
2013-02-06 22:38:00,21.5,2.0,30.32,NW,304,2.0,8.0,43,0.00,,,0.03,0,weatherlink.com 1.10,2013-02-07 03:38:00,
2013-02-06 22:55:00,20.8,2.0,30.32,North,351,0.0,4.0,45,0.00,,,0.03,0,weatherlink.com 1.10,2013-02-07 03:55:00,
2013-02-06 23:11:00,20.4,2.0,30.32,North,355,1.0,3.0,45,0.00,,,0.03,0,weatherlink.com 1.10,2013-02-07 04:11:00,
2013-02-06 23:27:00,19.9,3.0,30.33,North,355,0.0,3.0,47,0.00,,,0.03,0,weatherlink.com 1.10,2013-02-07 04:27:00,
2013-02-06 23:42:00,19.1,3.0,30.33,North,350,1.0,3.0,49,0.00,,,0.03,0,weatherlink.com 1.10,2013-02-07 04:42:00,
2013-02-06 23:58:00,18.8,3.0,30.34,NNW,339,3.0,6.0,50,0.00,,,0.03,0,weatherlink.com 1.10,2013-02-07 04:58:00,